createdAt,value
2018-02-10T00:00:35.099Z,26.53
2018-02-10T00:01:35.074Z,26.49
2018-02-10T00:02:35.074Z,26.42
2018-02-10T00:03:35.083Z,26.45
2018-02-10T00:04:35.115Z,26.42
2018-02-10T00:05:35.054Z,26.39
2018-02-10T00:06:34.963Z,26.42
2018-02-10T00:07:35.019Z,26.35
2018-02-10T00:08:34.946Z,26.35
2018-02-10T00:09:35.012Z,26.27
2018-02-10T00:10:34.882Z,26.19
2018-02-10T00:11:34.872Z,26.22
2018-02-10T00:12:34.837Z,26.06
2018-02-10T00:13:34.824Z,26.04
2018-02-10T00:14:34.892Z,26.01
2018-02-10T00:15:35.302Z,25.94
2018-02-10T00:16:35.282Z,25.96
2018-02-10T00:17:34.729Z,25.99
2018-02-10T00:18:34.750Z,25.89
2018-02-10T00:19:34.779Z,25.93
2018-02-10T00:20:34.647Z,25.89
2018-02-10T00:21:34.654Z,25.86
2018-02-10T00:22:34.624Z,25.85
2018-02-10T00:23:35.115Z,25.88
2018-02-10T00:24:35.194Z,25.84
2018-02-10T00:25:34.547Z,25.84
2018-02-10T00:26:34.526Z,25.85
2018-02-10T00:27:34.504Z,25.89
2018-02-10T00:28:35.005Z,25.85
2018-02-10T00:29:35.036Z,25.91
2018-02-10T00:30:34.545Z,25.94
2018-02-10T00:31:34.414Z,25.88
2018-02-10T00:32:34.905Z,25.89
2018-02-10T00:33:34.896Z,25.91
2018-02-10T00:34:34.333Z,25.78
2018-02-10T00:35:34.329Z,25.79
2018-02-10T00:36:34.457Z,25.78
2018-02-10T00:37:34.348Z,25.82
2018-02-10T00:38:34.262Z,25.81
2018-02-10T00:39:34.222Z,25.81
2018-02-10T00:40:34.204Z,25.75
2018-02-10T00:41:34.183Z,25.67
2018-02-10T00:42:34.252Z,25.54
2018-02-10T00:43:34.140Z,25.59
2018-02-10T00:44:34.109Z,25.54
2018-02-10T00:45:34.590Z,25.54
2018-02-10T00:46:34.072Z,25.56
2018-02-10T00:47:34.187Z,25.41
2018-02-10T00:48:34.064Z,25.45
2018-02-10T00:49:33.993Z,25.47
2018-02-10T00:50:33.965Z,25.54
2018-02-10T00:51:33.943Z,25.47
2018-02-10T00:52:34.020Z,25.48
2018-02-10T00:53:33.895Z,25.45
2018-02-10T00:54:33.956Z,25.27
2018-02-10T00:55:33.871Z,25.42
2018-02-10T00:56:33.835Z,25.38
2018-02-10T00:57:34.475Z,25.37
2018-02-10T00:58:34.003Z,25.32
2018-02-10T00:59:33.793Z,25.33
2018-02-10T01:00:33.758Z,25.34
2018-02-10T01:01:34.536Z,25.30
2018-02-10T01:02:33.882Z,25.32
2018-02-10T01:03:33.689Z,25.33
2018-02-10T01:04:33.699Z,25.26
2018-02-10T01:05:33.708Z,25.33
2018-02-10T01:06:33.648Z,25.29
2018-02-10T01:07:33.702Z,25.27
2018-02-10T01:08:33.554Z,25.27
2018-02-10T01:09:33.541Z,25.24
2018-02-10T01:10:33.497Z,25.30
2018-02-10T01:11:33.495Z,25.20
2018-02-10T01:12:33.459Z,25.26
2018-02-10T01:13:34.450Z,25.24
2018-02-10T01:14:33.420Z,25.20
2018-02-10T01:15:33.917Z,25.19
2018-02-10T01:16:33.909Z,25.11
2018-02-10T01:17:33.416Z,25.20
2018-02-10T01:18:33.313Z,25.17
2018-02-10T01:19:33.938Z,25.14
2018-02-10T01:20:33.802Z,25.11
2018-02-10T01:21:33.292Z,25.09
2018-02-10T01:22:34.509Z,25.12
2018-02-10T01:23:33.691Z,25.12
2018-02-10T01:24:33.275Z,25.00
2018-02-10T01:25:33.167Z,25.09
2018-02-10T01:26:33.171Z,25.00
2018-02-10T01:27:33.109Z,25.02
2018-02-10T01:28:33.241Z,24.97
2018-02-10T01:29:33.506Z,25.05
2018-02-10T01:30:33.030Z,25.00
2018-02-10T01:31:33.017Z,25.01
2018-02-10T01:32:32.994Z,24.97
2018-02-10T01:33:33.501Z,25.04
2018-02-10T01:34:33.067Z,24.97
2018-02-10T01:35:33.492Z,24.97
2018-02-10T01:36:33.313Z,25.07
2018-02-10T01:37:33.349Z,25.00
2018-02-10T01:38:33.371Z,25.09
2018-02-10T01:39:33.443Z,24.97
2018-02-10T01:40:32.892Z,25.12
2018-02-10T01:41:32.749Z,25.08
2018-02-10T01:42:33.314Z,25.05
2018-02-10T01:43:33.263Z,24.97
2018-02-10T01:44:32.828Z,25.04
2018-02-10T01:45:33.011Z,25.00
2018-02-10T01:46:32.648Z,24.97
2018-02-10T01:47:32.687Z,25.00
2018-02-10T01:48:33.227Z,25.05
2018-02-10T01:49:33.224Z,24.96
2018-02-10T01:50:32.995Z,25.00
2018-02-10T01:51:32.622Z,25.00
2018-02-10T01:52:33.150Z,24.94
2018-02-10T01:53:32.511Z,25.01
2018-02-10T01:54:33.006Z,24.94
2018-02-10T01:55:33.092Z,25.00
2018-02-10T01:56:32.949Z,24.93
2018-02-10T01:57:33.089Z,24.93
2018-02-10T01:58:32.898Z,24.92
2018-02-10T01:59:32.883Z,24.93
2018-02-10T02:00:32.312Z,24.93
2018-02-10T02:01:32.949Z,24.93
2018-02-10T02:02:32.271Z,24.90
2018-02-10T02:03:32.716Z,24.93
2018-02-10T02:04:32.751Z,24.92
2018-02-10T02:05:32.262Z,24.94
2018-02-10T02:06:32.282Z,24.93
2018-02-10T02:07:32.183Z,24.89
2018-02-10T02:08:32.223Z,24.94
2018-02-10T02:09:33.031Z,24.90
2018-02-10T02:10:32.341Z,24.92
2018-02-10T02:11:32.837Z,24.90
2018-02-10T02:12:32.042Z,24.92
2018-02-10T02:13:32.089Z,24.93
2018-02-10T02:14:32.002Z,24.94
2018-02-10T02:15:31.975Z,24.96
2018-02-10T02:16:32.057Z,24.94
2018-02-10T02:17:31.926Z,24.92
2018-02-10T02:18:31.958Z,24.92
2018-02-10T02:19:31.870Z,24.89
2018-02-10T02:20:32.104Z,24.93
2018-02-10T02:21:31.915Z,25.00
2018-02-10T02:22:31.791Z,25.04
2018-02-10T02:23:32.693Z,24.94
2018-02-10T02:24:31.746Z,25.01
2018-02-10T02:25:32.233Z,25.04
2018-02-10T02:26:31.787Z,24.90
2018-02-10T02:27:32.192Z,25.02
2018-02-10T02:28:31.647Z,24.97
2018-02-10T02:29:31.713Z,25.02
2018-02-10T02:30:31.626Z,25.00
2018-02-10T02:31:31.721Z,25.05
2018-02-10T02:32:32.137Z,24.97
2018-02-10T02:33:31.523Z,25.00
2018-02-10T02:34:31.501Z,24.96
2018-02-10T02:35:31.498Z,25.04
2018-02-10T02:36:31.458Z,24.93
2018-02-10T02:37:31.540Z,24.97
2018-02-10T02:38:31.928Z,25.04
2018-02-10T02:39:31.599Z,25.02
2018-02-10T02:40:31.877Z,25.08
2018-02-10T02:41:31.341Z,25.05
2018-02-10T02:42:31.401Z,25.14
2018-02-10T02:43:31.393Z,25.20
2018-02-10T02:44:31.382Z,25.19
2018-02-10T02:45:31.800Z,25.20
2018-02-10T02:46:31.270Z,25.15
2018-02-10T02:47:31.200Z,25.07
2018-02-10T02:48:31.828Z,25.09
2018-02-10T02:49:31.133Z,25.08
2018-02-10T02:50:31.200Z,25.01
2018-02-10T02:51:32.319Z,25.01
2018-02-10T02:52:31.984Z,24.94
2018-02-10T02:53:31.660Z,24.92
2018-02-10T02:54:31.135Z,24.93
2018-02-10T02:55:31.086Z,24.83
2018-02-10T02:56:31.532Z,24.86
2018-02-10T02:57:31.552Z,24.74
2018-02-10T02:58:31.584Z,24.78
2018-02-10T02:59:31.322Z,24.83
2018-02-10T03:00:31.287Z,24.82
2018-02-10T03:01:30.959Z,24.75
2018-02-10T03:02:31.564Z,24.69
2018-02-10T03:03:31.172Z,24.63
2018-02-10T03:04:31.156Z,24.59
2018-02-10T03:05:30.906Z,24.59
2018-02-10T03:06:31.146Z,24.61
2018-02-10T03:07:30.824Z,24.58
2018-02-10T03:08:30.825Z,24.59
2018-02-10T03:09:30.659Z,24.59
2018-02-10T03:10:30.739Z,24.63
2018-02-10T03:11:31.052Z,24.59
2018-02-10T03:12:30.626Z,24.59
2018-02-10T03:13:30.849Z,24.59
2018-02-10T03:14:30.628Z,24.64
2018-02-10T03:15:31.045Z,24.69
2018-02-10T03:16:30.506Z,24.59
2018-02-10T03:17:31.058Z,24.61
2018-02-10T03:18:31.036Z,24.61
2018-02-10T03:19:31.007Z,24.63
2018-02-10T03:20:30.500Z,24.71
2018-02-10T03:21:30.379Z,24.67
2018-02-10T03:22:30.348Z,24.71
2018-02-10T03:23:30.746Z,24.69
2018-02-10T03:24:30.288Z,24.69
2018-02-10T03:25:30.802Z,24.71
2018-02-10T03:26:30.931Z,24.70
2018-02-10T03:27:30.228Z,24.66
2018-02-10T03:28:30.730Z,24.74
2018-02-10T03:29:30.186Z,24.61
2018-02-10T03:30:30.155Z,24.64
2018-02-10T03:31:30.232Z,24.44
2018-02-10T03:32:30.620Z,24.52
2018-02-10T03:33:30.081Z,24.44
2018-02-10T03:34:30.053Z,24.49
2018-02-10T03:35:30.023Z,24.49
2018-02-10T03:36:30.093Z,24.49
2018-02-10T03:37:29.964Z,24.49
2018-02-10T03:38:29.945Z,24.54
2018-02-10T03:39:29.963Z,24.45
2018-02-10T03:40:30.431Z,24.46
2018-02-10T03:41:30.571Z,24.48
2018-02-10T03:42:30.491Z,24.44
2018-02-10T03:43:29.854Z,24.44
2018-02-10T03:44:29.817Z,24.42
2018-02-10T03:45:29.775Z,24.46
2018-02-10T03:46:30.382Z,24.42
2018-02-10T03:47:29.766Z,24.45
2018-02-10T03:48:29.703Z,24.36
2018-02-10T03:49:30.290Z,24.37
2018-02-10T03:50:29.668Z,24.34
2018-02-10T03:51:29.698Z,24.32
2018-02-10T03:52:29.748Z,24.33
2018-02-10T03:53:29.609Z,24.36
2018-02-10T03:54:30.095Z,24.44
2018-02-10T03:55:29.547Z,24.36
2018-02-10T03:56:29.500Z,24.36
2018-02-10T03:57:29.479Z,24.34
2018-02-10T03:58:30.087Z,24.40
2018-02-10T03:59:29.428Z,24.33
2018-02-10T04:00:30.019Z,24.36
2018-02-10T04:01:29.905Z,24.30
2018-02-10T04:02:29.377Z,24.36
2018-02-10T04:03:29.459Z,24.40
2018-02-10T04:04:30.007Z,24.36
2018-02-10T04:05:29.292Z,24.39
2018-02-10T04:06:29.789Z,24.33
2018-02-10T04:07:29.231Z,24.34
2018-02-10T04:08:29.201Z,24.33
2018-02-10T04:09:29.298Z,24.19
2018-02-10T04:10:29.166Z,24.32
2018-02-10T04:11:29.146Z,24.24
2018-02-10T04:12:29.119Z,24.21
2018-02-10T04:13:29.671Z,24.22
2018-02-10T04:14:29.179Z,24.27
2018-02-10T04:15:29.041Z,24.24
2018-02-10T04:16:29.024Z,24.22
2018-02-10T04:17:29.023Z,24.22
2018-02-10T04:18:28.954Z,24.29
2018-02-10T04:19:29.044Z,24.26
2018-02-10T04:20:28.913Z,24.29
2018-02-10T04:21:28.884Z,24.24
2018-02-10T04:22:28.951Z,24.18
2018-02-10T04:23:28.835Z,24.18
2018-02-10T04:24:28.861Z,24.22
2018-02-10T04:25:28.893Z,24.18
2018-02-10T04:26:28.767Z,24.24
2018-02-10T04:27:28.736Z,24.18
2018-02-10T04:28:28.724Z,24.14
2018-02-10T04:29:28.704Z,24.09
2018-02-10T04:30:29.194Z,24.14
2018-02-10T04:31:28.736Z,24.11
2018-02-10T04:32:28.621Z,24.08
2018-02-10T04:33:28.587Z,24.04
2018-02-10T04:34:28.569Z,24.11
2018-02-10T04:35:28.547Z,24.08
2018-02-10T04:36:28.519Z,24.15
2018-02-10T04:37:28.638Z,24.09
2018-02-10T04:38:28.487Z,24.09
2018-02-10T04:39:28.464Z,24.07
2018-02-10T04:40:28.419Z,24.08
2018-02-10T04:41:28.389Z,24.04
2018-02-10T04:42:28.379Z,24.04
2018-02-10T04:43:28.446Z,24.08
2018-02-10T04:44:28.320Z,24.07
2018-02-10T04:45:28.305Z,24.08
2018-02-10T04:46:28.278Z,24.07
2018-02-10T04:47:28.259Z,24.09
2018-02-10T04:48:28.512Z,24.08
2018-02-10T04:49:28.192Z,24.07
2018-02-10T04:50:28.171Z,24.08
2018-02-10T04:51:28.164Z,24.08
2018-02-10T04:52:28.122Z,24.04
2018-02-10T04:53:28.210Z,24.09
2018-02-10T04:54:28.073Z,24.00
2018-02-10T04:55:28.080Z,24.09
2018-02-10T04:56:28.099Z,23.99
2018-02-10T04:57:28.009Z,24.08
2018-02-10T04:58:28.151Z,24.09
2018-02-10T04:59:27.959Z,24.00
2018-02-10T05:00:27.930Z,24.09
2018-02-10T05:01:27.894Z,23.97
2018-02-10T05:02:27.889Z,24.09
2018-02-10T05:03:27.912Z,23.96
2018-02-10T05:04:27.930Z,23.99
2018-02-10T05:05:27.795Z,24.02
2018-02-10T05:06:27.765Z,23.94
2018-02-10T05:07:27.753Z,23.90
2018-02-10T05:08:27.775Z,23.92
2018-02-10T05:09:27.797Z,23.92
2018-02-10T05:10:27.667Z,23.96
2018-02-10T05:11:27.647Z,23.96
2018-02-10T05:12:27.633Z,23.92
2018-02-10T05:13:27.606Z,23.96
2018-02-10T05:14:27.677Z,23.93
2018-02-10T05:15:27.547Z,23.99
2018-02-10T05:16:27.517Z,23.87
2018-02-10T05:17:27.507Z,23.93
2018-02-10T05:18:27.480Z,23.85
2018-02-10T05:19:27.521Z,23.85
2018-02-10T05:20:27.520Z,23.82
2018-02-10T05:21:27.406Z,23.84
2018-02-10T05:22:27.455Z,23.89
2018-02-10T05:23:27.345Z,23.82
2018-02-10T05:24:27.321Z,23.87
2018-02-10T05:25:27.300Z,23.78
2018-02-10T05:26:27.382Z,23.74
2018-02-10T05:27:27.259Z,23.89
2018-02-10T05:28:27.221Z,23.92
2018-02-10T05:29:27.191Z,23.87
2018-02-10T05:30:27.173Z,23.96
2018-02-10T05:31:27.267Z,23.78
2018-02-10T05:32:27.127Z,23.90
2018-02-10T05:33:27.091Z,23.89
2018-02-10T05:34:27.141Z,23.82
2018-02-10T05:35:27.052Z,23.85
2018-02-10T05:36:27.123Z,23.77
2018-02-10T05:37:27.000Z,23.78
2018-02-10T05:38:26.971Z,23.78
2018-02-10T05:39:26.945Z,23.77
2018-02-10T05:40:26.939Z,23.78
2018-02-10T05:41:26.947Z,23.67
2018-02-10T05:42:26.984Z,23.70
2018-02-10T05:43:26.885Z,23.78
2018-02-10T05:44:26.855Z,23.77
2018-02-10T05:45:26.796Z,23.78
2018-02-10T05:46:26.777Z,23.79
2018-02-10T05:47:26.896Z,23.74
2018-02-10T05:48:26.726Z,23.75
2018-02-10T05:49:26.764Z,23.75
2018-02-10T05:50:26.692Z,23.79
2018-02-10T05:51:26.726Z,23.75
2018-02-10T05:52:26.768Z,23.72
2018-02-10T05:53:26.596Z,23.67
2018-02-10T05:54:26.569Z,23.66
2018-02-10T05:55:26.617Z,23.66
2018-02-10T05:56:26.520Z,23.63
2018-02-10T05:57:26.599Z,23.66
2018-02-10T05:58:26.468Z,23.64
2018-02-10T05:59:26.447Z,23.59
2018-02-10T06:00:26.418Z,23.63
2018-02-10T06:01:26.388Z,23.64
2018-02-10T06:02:26.407Z,23.60
2018-02-10T06:03:26.456Z,23.70
2018-02-10T06:04:26.329Z,23.59
2018-02-10T06:05:26.290Z,23.57
2018-02-10T06:06:26.279Z,23.50
2018-02-10T06:07:26.252Z,23.56
2018-02-10T06:08:26.220Z,23.60
2018-02-10T06:09:26.352Z,23.56
2018-02-10T06:10:26.192Z,23.50
2018-02-10T06:11:26.146Z,23.55
2018-02-10T06:12:26.111Z,23.62
2018-02-10T06:13:26.109Z,23.56
2018-02-10T06:14:26.085Z,23.53
2018-02-10T06:15:26.140Z,23.56
2018-02-10T06:16:26.013Z,23.56
2018-02-10T06:17:25.991Z,23.50
2018-02-10T06:18:25.964Z,23.55
2018-02-10T06:19:25.957Z,23.56
2018-02-10T06:20:25.934Z,23.59
2018-02-10T06:21:25.994Z,23.52
2018-02-10T06:22:25.873Z,23.63
2018-02-10T06:23:25.853Z,23.53
2018-02-10T06:24:25.834Z,23.60
2018-02-10T06:25:25.783Z,23.59
2018-02-10T06:26:25.874Z,23.63
2018-02-10T06:27:25.745Z,23.60
2018-02-10T06:28:25.727Z,23.60
2018-02-10T06:29:25.684Z,23.63
2018-02-10T06:30:25.666Z,23.71
2018-02-10T06:31:25.734Z,23.71
2018-02-10T06:32:25.622Z,23.72
2018-02-10T06:33:25.598Z,23.59
2018-02-10T06:34:25.574Z,23.57
2018-02-10T06:35:25.548Z,23.59
2018-02-10T06:36:25.618Z,23.52
2018-02-10T06:37:25.485Z,23.50
2018-02-10T06:38:25.467Z,23.50
2018-02-10T06:39:25.437Z,23.52
2018-02-10T06:40:25.461Z,23.48
2018-02-10T06:41:25.398Z,23.50
2018-02-10T06:42:25.462Z,23.42
2018-02-10T06:43:25.344Z,23.53
2018-02-10T06:44:25.322Z,23.48
2018-02-10T06:45:25.283Z,23.56
2018-02-10T06:46:25.258Z,23.38
2018-02-10T06:47:25.240Z,23.41
2018-02-10T06:48:25.311Z,23.45
2018-02-10T06:49:25.192Z,23.57
2018-02-10T06:50:25.168Z,23.57
2018-02-10T06:51:25.132Z,23.57
2018-02-10T06:52:25.112Z,23.47
2018-02-10T06:53:25.158Z,23.40
2018-02-10T06:54:25.168Z,23.47
2018-02-10T06:55:25.031Z,23.47
2018-02-10T06:56:25.002Z,23.44
2018-02-10T06:57:25.023Z,23.38
2018-02-10T06:58:24.960Z,23.41
2018-02-10T06:59:25.039Z,23.41
2018-02-10T07:00:24.904Z,23.44
2018-02-10T07:01:24.890Z,23.41
2018-02-10T07:02:24.868Z,23.34
2018-02-10T07:03:24.823Z,23.29
2018-02-10T07:04:24.915Z,23.37
2018-02-10T07:05:24.776Z,23.28
2018-02-10T07:06:24.793Z,23.37
2018-02-10T07:07:24.804Z,23.38
2018-02-10T07:08:24.705Z,23.34
2018-02-10T07:09:24.793Z,23.29
2018-02-10T07:10:24.645Z,23.34
2018-02-10T07:11:24.639Z,23.37
2018-02-10T07:12:24.614Z,23.35
2018-02-10T07:13:24.576Z,23.26
2018-02-10T07:14:24.668Z,23.21
2018-02-10T07:15:24.527Z,23.19
2018-02-10T07:16:24.517Z,23.24
2018-02-10T07:17:24.484Z,23.18
2018-02-10T07:18:24.521Z,23.24
2018-02-10T07:19:24.449Z,23.32
2018-02-10T07:20:24.501Z,23.32
2018-02-10T07:21:24.370Z,23.32
2018-02-10T07:22:24.348Z,23.34
2018-02-10T07:23:24.320Z,23.37
2018-02-10T07:24:24.308Z,23.22
2018-02-10T07:25:24.270Z,23.24
2018-02-10T07:26:24.398Z,23.22
2018-02-10T07:27:24.220Z,23.22
2018-02-10T07:28:24.261Z,23.18
2018-02-10T07:29:24.181Z,23.38
2018-02-10T07:30:24.141Z,23.35
2018-02-10T07:31:24.170Z,23.37
2018-02-10T07:32:24.211Z,23.26
2018-02-10T07:33:24.063Z,23.34
2018-02-10T07:34:24.041Z,23.40
2018-02-10T07:35:24.021Z,23.32
2018-02-10T07:36:23.985Z,23.34
2018-02-10T07:37:24.066Z,23.29
2018-02-10T07:38:23.952Z,23.34
2018-02-10T07:39:23.921Z,23.34
2018-02-10T07:40:23.926Z,23.32
2018-02-10T07:41:23.865Z,23.29
2018-02-10T07:42:23.954Z,23.38
2018-02-10T07:43:23.840Z,23.40
2018-02-10T07:44:23.815Z,23.37
2018-02-10T07:45:23.769Z,23.25
2018-02-10T07:46:23.790Z,23.18
2018-02-10T07:47:23.826Z,23.21
2018-02-10T07:48:23.695Z,23.19
2018-02-10T07:49:23.668Z,23.15
2018-02-10T07:50:23.627Z,23.14
2018-02-10T07:51:23.624Z,23.19
2018-02-10T07:52:23.675Z,23.09
2018-02-10T07:53:23.556Z,23.15
2018-02-10T07:54:23.524Z,23.09
2018-02-10T07:55:23.523Z,23.10
2018-02-10T07:56:23.486Z,23.06
2018-02-10T07:57:23.451Z,23.07
2018-02-10T07:58:23.527Z,23.04
2018-02-10T07:59:23.397Z,23.07
2018-02-10T08:00:23.379Z,23.01
2018-02-10T08:01:23.348Z,23.04
2018-02-10T08:02:23.339Z,23.04
2018-02-10T08:03:23.296Z,23.03
2018-02-10T08:04:23.419Z,23.07
2018-02-10T08:05:23.254Z,23.04
2018-02-10T08:06:23.219Z,23.06
2018-02-10T08:07:23.198Z,23.09
2018-02-10T08:08:23.171Z,23.09
2018-02-10T08:09:23.190Z,23.04
2018-02-10T08:10:23.219Z,23.03
2018-02-10T08:11:23.106Z,23.07
2018-02-10T08:12:23.070Z,23.10
2018-02-10T08:13:23.051Z,23.22
2018-02-10T08:14:23.022Z,23.12
2018-02-10T08:15:23.102Z,23.19
2018-02-10T08:16:22.963Z,23.15
2018-02-10T08:17:22.931Z,23.14
2018-02-10T08:18:22.914Z,23.14
2018-02-10T08:19:22.883Z,23.16
2018-02-10T08:20:23.009Z,23.09
2018-02-10T08:21:22.843Z,23.15
2018-02-10T08:22:22.817Z,23.09
2018-02-10T08:23:22.793Z,23.18
2018-02-10T08:24:22.753Z,23.15
2018-02-10T08:25:22.902Z,23.15
2018-02-10T08:26:22.718Z,23.15
2018-02-10T08:27:22.686Z,23.18
2018-02-10T08:28:22.693Z,23.14
2018-02-10T08:29:22.642Z,23.14
2018-02-10T08:30:22.704Z,23.09
2018-02-10T08:31:22.593Z,23.12
2018-02-10T08:32:22.624Z,23.12
2018-02-10T08:33:22.554Z,23.16
2018-02-10T08:34:22.513Z,23.15
2018-02-10T08:35:22.574Z,23.10
2018-02-10T08:36:22.484Z,23.12
2018-02-10T08:37:22.453Z,23.19
2018-02-10T08:38:22.397Z,23.18
2018-02-10T08:39:22.386Z,23.15
2018-02-10T08:40:22.349Z,23.12
2018-02-10T08:41:22.433Z,23.18
2018-02-10T08:42:22.307Z,23.12
2018-02-10T08:43:22.270Z,23.25
2018-02-10T08:44:22.259Z,23.15
2018-02-10T08:45:22.218Z,23.15
2018-02-10T08:46:22.300Z,23.18
2018-02-10T08:47:22.171Z,23.15
2018-02-10T08:48:22.137Z,23.14
2018-02-10T08:49:22.168Z,23.21
2018-02-10T08:50:22.092Z,23.26
2018-02-10T08:51:22.175Z,23.18
2018-02-10T08:52:22.040Z,23.14
2018-02-10T08:53:22.010Z,23.14
2018-02-10T08:54:21.989Z,23.14
2018-02-10T08:55:21.996Z,23.14
2018-02-10T08:56:22.040Z,23.10
2018-02-10T08:57:21.911Z,23.07
2018-02-10T08:58:21.901Z,23.09
2018-02-10T08:59:21.870Z,23.04
2018-02-10T09:00:21.919Z,23.06
2018-02-10T09:01:21.922Z,23.03
2018-02-10T09:02:21.793Z,23.04
2018-02-10T09:03:21.752Z,23.01
2018-02-10T09:04:21.733Z,23.06
2018-02-10T09:05:21.705Z,23.00
2018-02-10T09:06:21.792Z,23.06
2018-02-10T09:07:21.654Z,23.03
2018-02-10T09:08:21.624Z,23.07
2018-02-10T09:09:21.606Z,23.07
2018-02-10T09:10:21.574Z,23.04
2018-02-10T09:11:21.660Z,23.12
2018-02-10T09:12:21.528Z,23.01
2018-02-10T09:13:21.512Z,23.06
2018-02-10T09:14:21.484Z,23.00
2018-02-10T09:15:21.464Z,22.92
2018-02-10T09:16:21.426Z,22.97
2018-02-10T09:17:21.495Z,22.92
2018-02-10T09:18:21.390Z,22.97
2018-02-10T09:19:21.346Z,22.86
2018-02-10T09:20:21.356Z,22.89
2018-02-10T09:21:21.300Z,22.89
2018-02-10T09:22:21.269Z,22.92
2018-02-10T09:23:21.346Z,22.94
2018-02-10T09:24:21.217Z,22.97
2018-02-10T09:25:21.206Z,22.91
2018-02-10T09:26:21.191Z,22.88
2018-02-10T09:27:21.147Z,22.85
2018-02-10T09:28:21.218Z,22.85
2018-02-10T09:29:21.088Z,22.82
2018-02-10T09:30:21.059Z,22.85
2018-02-10T09:31:21.042Z,22.86
2018-02-10T09:32:21.010Z,22.82
2018-02-10T09:33:21.090Z,22.86
2018-02-10T09:34:20.980Z,22.85
2018-02-10T09:35:20.932Z,22.82
2018-02-10T09:36:20.914Z,22.82
2018-02-10T09:37:20.882Z,22.85
2018-02-10T09:38:20.960Z,22.86
2018-02-10T09:39:20.831Z,22.85
2018-02-10T09:40:20.817Z,22.81
2018-02-10T09:41:20.782Z,22.89
2018-02-10T09:42:20.774Z,22.86
2018-02-10T09:43:20.852Z,22.91
2018-02-10T09:44:20.710Z,22.84
2018-02-10T09:45:20.702Z,22.92
2018-02-10T09:46:20.651Z,22.97
2018-02-10T09:47:20.646Z,22.88
2018-02-10T09:48:20.729Z,22.86
2018-02-10T09:49:20.577Z,22.85
2018-02-10T09:50:20.561Z,22.81
2018-02-10T09:51:20.525Z,22.85
2018-02-10T09:52:20.492Z,22.85
2018-02-10T09:53:20.575Z,22.85
2018-02-10T09:54:20.444Z,22.84
2018-02-10T09:55:20.433Z,22.86
2018-02-10T09:56:20.396Z,22.85
2018-02-10T09:57:20.383Z,22.85
2018-02-10T09:58:20.355Z,22.82
2018-02-10T09:59:20.423Z,22.85
2018-02-10T10:00:20.326Z,22.76
2018-02-10T10:01:20.291Z,22.73
2018-02-10T10:02:20.249Z,22.70
2018-02-10T10:03:20.222Z,22.79
2018-02-10T10:04:20.299Z,22.79
2018-02-10T10:05:20.159Z,22.82
2018-02-10T10:06:20.147Z,22.88
2018-02-10T10:07:20.109Z,22.86
2018-02-10T10:08:20.076Z,22.79
2018-02-10T10:09:20.161Z,22.84
2018-02-10T10:10:20.032Z,22.85
2018-02-10T10:11:20.018Z,22.84
2018-02-10T10:12:19.985Z,22.81
2018-02-10T10:13:19.968Z,22.78
2018-02-10T10:14:20.055Z,22.71
2018-02-10T10:15:19.921Z,22.69
2018-02-10T10:16:19.883Z,22.81
2018-02-10T10:17:19.851Z,22.69
2018-02-10T10:18:19.839Z,22.63
2018-02-10T10:19:19.911Z,22.66
2018-02-10T10:20:19.771Z,22.69
2018-02-10T10:21:19.757Z,22.60
2018-02-10T10:22:19.789Z,22.71
2018-02-10T10:23:19.720Z,22.61
2018-02-10T10:24:19.674Z,22.67
2018-02-10T10:25:19.741Z,22.64
2018-02-10T10:26:19.632Z,22.69
2018-02-10T10:27:19.595Z,22.69
2018-02-10T10:28:19.569Z,22.70
2018-02-10T10:29:19.564Z,22.66
2018-02-10T10:30:19.513Z,22.64
2018-02-10T10:31:19.583Z,22.67
2018-02-10T10:32:19.467Z,22.75
2018-02-10T10:33:19.445Z,22.69
2018-02-10T10:34:19.414Z,22.64
2018-02-10T10:35:19.386Z,22.69
2018-02-10T10:36:19.355Z,22.66
2018-02-10T10:37:19.447Z,22.64
2018-02-10T10:38:19.304Z,22.64
2018-02-10T10:39:19.294Z,22.67
2018-02-10T10:40:19.277Z,22.69
2018-02-10T10:41:19.244Z,22.60
2018-02-10T10:42:19.308Z,22.61
2018-02-10T10:43:19.178Z,22.63
2018-02-10T10:44:19.158Z,22.67
2018-02-10T10:45:19.136Z,22.67
2018-02-10T10:46:19.102Z,22.63
2018-02-10T10:47:19.189Z,22.63
2018-02-10T10:48:19.049Z,22.63
2018-02-10T10:49:19.058Z,22.69
2018-02-10T10:50:19.077Z,22.63
2018-02-10T10:51:18.971Z,22.66
2018-02-10T10:52:19.050Z,22.66
2018-02-10T10:53:18.929Z,22.66
2018-02-10T10:54:18.910Z,22.69
2018-02-10T10:55:18.871Z,22.63
2018-02-10T10:56:18.858Z,22.66
2018-02-10T10:57:18.934Z,22.63
2018-02-10T10:58:18.790Z,22.63
2018-02-10T10:59:18.762Z,22.71
2018-02-10T11:00:18.748Z,22.63
2018-02-10T11:01:18.731Z,22.75
2018-02-10T11:02:18.848Z,22.63
2018-02-10T11:03:18.848Z,22.67
2018-02-10T11:04:18.697Z,22.61
2018-02-10T11:05:18.624Z,22.61
2018-02-10T11:06:18.600Z,22.75
2018-02-10T11:07:18.639Z,22.64
2018-02-10T11:08:18.633Z,22.66
2018-02-10T11:09:18.511Z,22.66
2018-02-10T11:10:18.474Z,22.66
2018-02-10T11:11:18.472Z,22.61
2018-02-10T11:12:18.423Z,22.66
2018-02-10T11:13:18.404Z,22.60
2018-02-10T11:14:18.494Z,22.63
2018-02-10T11:15:18.346Z,22.61
2018-02-10T11:16:18.326Z,22.60
2018-02-10T11:17:18.374Z,22.49
2018-02-10T11:18:18.282Z,22.60
2018-02-10T11:19:18.287Z,22.52
2018-02-10T11:20:18.334Z,22.52
2018-02-10T11:21:18.250Z,22.51
2018-02-10T11:22:18.184Z,22.52
2018-02-10T11:23:18.156Z,22.61
2018-02-10T11:24:18.116Z,22.61
2018-02-10T11:25:18.214Z,22.46
2018-02-10T11:26:18.068Z,22.61
2018-02-10T11:27:18.090Z,22.66
2018-02-10T11:28:18.117Z,22.66
2018-02-10T11:29:17.996Z,22.63
2018-02-10T11:30:18.151Z,22.49
2018-02-10T11:31:18.067Z,22.52
2018-02-10T11:32:17.926Z,22.55
2018-02-10T11:33:17.898Z,22.55
2018-02-10T11:34:17.939Z,22.51
2018-02-10T11:35:17.890Z,22.55
2018-02-10T11:36:17.916Z,22.60
2018-02-10T11:37:17.791Z,22.61
2018-02-10T11:38:17.767Z,22.59
2018-02-10T11:39:17.722Z,22.52
2018-02-10T11:40:17.790Z,22.60
2018-02-10T11:41:17.672Z,22.55
2018-02-10T11:42:17.762Z,22.49
2018-02-10T11:43:17.621Z,22.54
2018-02-10T11:44:17.611Z,22.52
2018-02-10T11:45:17.572Z,22.52
2018-02-10T11:46:17.560Z,22.57
2018-02-10T11:47:17.628Z,22.46
2018-02-10T11:48:17.502Z,22.51
2018-02-10T11:49:17.488Z,22.52
2018-02-10T11:50:17.444Z,22.49
2018-02-10T11:51:17.441Z,22.54
2018-02-10T11:52:17.385Z,22.52
2018-02-10T11:53:17.548Z,22.49
2018-02-10T11:54:17.334Z,22.46
2018-02-10T11:55:17.323Z,22.48
2018-02-10T11:56:17.294Z,22.41
2018-02-10T11:57:17.283Z,22.52
2018-02-10T11:58:17.224Z,22.59
2018-02-10T11:59:17.316Z,22.48
2018-02-10T12:00:17.193Z,22.48
2018-02-10T12:01:17.253Z,22.51
2018-02-10T12:02:17.147Z,22.51
2018-02-10T12:03:17.137Z,22.51
2018-02-10T12:04:17.183Z,22.52
2018-02-10T12:05:17.072Z,22.48
2018-02-10T12:06:17.037Z,22.55
2018-02-10T12:07:17.026Z,22.54
2018-02-10T12:08:16.985Z,22.52
2018-02-10T12:09:17.057Z,22.49
2018-02-10T12:10:16.935Z,22.51
2018-02-10T12:11:17.023Z,22.64
2018-02-10T12:12:16.879Z,22.64
2018-02-10T12:13:16.852Z,22.63
2018-02-10T12:14:16.973Z,22.61
2018-02-10T12:15:16.917Z,22.70
2018-02-10T12:16:16.776Z,22.60
2018-02-10T12:17:16.751Z,22.60
2018-02-10T12:18:16.721Z,22.61
2018-02-10T12:19:16.781Z,22.64
2018-02-10T12:20:16.777Z,22.64
2018-02-10T12:21:16.636Z,22.67
2018-02-10T12:22:16.685Z,22.69
2018-02-10T12:23:16.682Z,22.64
2018-02-10T12:24:16.570Z,22.73
2018-02-10T12:25:16.649Z,22.75
2018-02-10T12:26:16.529Z,22.86
2018-02-10T12:27:16.512Z,22.85
2018-02-10T12:28:16.455Z,22.86
2018-02-10T12:29:16.445Z,22.92
2018-02-10T12:30:16.455Z,22.94
2018-02-10T12:31:16.524Z,23.04
2018-02-10T12:32:16.354Z,23.04
2018-02-10T12:33:16.323Z,23.09
2018-02-10T12:34:16.440Z,23.15
2018-02-10T12:35:16.291Z,23.25
2018-02-10T12:36:16.255Z,23.24
2018-02-10T12:37:16.369Z,23.34
2018-02-10T12:38:16.219Z,23.35
2018-02-10T12:39:16.183Z,23.50
2018-02-10T12:40:16.133Z,23.42
2018-02-10T12:41:16.132Z,23.45
2018-02-10T12:42:16.209Z,23.57
2018-02-10T12:43:16.083Z,23.63
2018-02-10T12:44:16.086Z,23.70
2018-02-10T12:45:16.067Z,23.72
2018-02-10T12:46:15.988Z,23.77
2018-02-10T12:47:15.973Z,23.81
2018-02-10T12:48:16.038Z,23.87
2018-02-10T12:49:15.907Z,23.90
2018-02-10T12:50:15.895Z,24.03
2018-02-10T12:51:15.886Z,24.08
2018-02-10T12:52:15.879Z,24.11